Time;durP1;ratioP1;P1;durP2;ratioP2;P2;SDS_P1;SDS_P2;PMS_P1;PMS_P2;Temp;Humidity;BMP_temperature;BMP_pressure;BME280_temperature;BME280_humidity;BME280_pressure;Samples;Min_cycle;Max_cycle;Signal;HPM_P1;HPM_P2
2022/06/03 00:02:48;;;;;;;2.00;1.40;;;;;;;10.54;68.04;97297.64;107663;1268;38558;-72
2022/06/03 00:05:55;;;;;;;4.30;1.80;;;;;;;10.49;68.15;97300.92;107697;1268;31971;-72
2022/06/03 00:08:59;;;;;;;1.80;1.40;;;;;;;10.27;68.49;97301.73;107675;1268;37332;-72
2022/06/03 00:11:42;;;;;;;1.70;1.20;;;;;;;10.29;68.44;97301.98;107729;1267;43953;-71
2022/06/03 00:14:46;;;;;;;1.50;1.20;;;;;;;10.31;68.20;97301.34;107647;1270;28488;-73
2022/06/03 00:17:44;;;;;;;1.20;1.10;;;;;;;10.32;68.12;97298.64;107640;1267;45011;-72
2022/06/03 00:20:28;;;;;;;3.10;1.50;;;;;;;10.14;68.21;97298.90;107627;1268;30884;-72
2022/06/03 00:23:22;;;;;;;1.50;1.30;;;;;;;9.88;68.71;97297.77;107704;1268;39290;-72
2022/06/03 00:26:15;;;;;;;1.60;1.20;;;;;;;9.86;69.16;97300.87;107571;1268;35059;-72
2022/06/03 00:28:59;;;;;;;1.80;1.30;;;;;;;9.88;69.72;97300.99;107653;1267;36954;-72
2022/06/03 00:31:48;;;;;;;2.00;1.40;;;;;;;9.81;70.00;97300.41;107738;1267;39211;-72
2022/06/03 00:34:34;;;;;;;2.20;1.10;;;;;;;9.77;70.26;97297.69;107738;1268;32638;-72
2022/06/03 00:37:27;;;;;;;2.20;1.40;;;;;;;9.80;70.49;97295.64;107668;1268;41824;-72
2022/06/03 00:40:28;;;;;;;1.50;1.20;;;;;;;9.89;70.43;97292.32;107670;1267;30993;-72
2022/06/03 00:43:20;;;;;;;1.20;1.10;;;;;;;10.00;70.22;97296.19;107776;1267;31661;-72
2022/06/03 00:46:06;;;;;;;4.70;1.30;;;;;;;10.06;69.96;97292.71;107691;1267;46953;-72
2022/06/03 00:48:50;;;;;;;2.20;1.30;;;;;;;10.17;69.89;97286.09;107751;1268;31554;-73
2022/06/03 00:51:55;;;;;;;2.70;1.40;;;;;;;10.17;69.60;97289.38;107613;1268;31505;-72
2022/06/03 00:54:44;;;;;;;3.30;1.60;;;;;;;10.15;69.35;97292.61;107764;1268;31412;-72
2022/06/03 00:57:42;;;;;;;1.70;1.30;;;;;;;10.18;69.31;97288.95;107665;1267;51213;-72
2022/06/03 01:00:21;;;;;;;1.70;1.60;;;;;;;10.20;69.15;97288.38;107671;1268;41722;-72
2022/06/03 01:03:25;;;;;;;3.40;1.60;;;;;;;10.22;68.93;97286.02;107651;1268;43315;-72
2022/06/03 01:06:15;;;;;;;1.90;1.60;;;;;;;10.20;68.94;97290.45;107673;1268;38459;-72
2022/06/03 01:09:03;;;;;;;1.60;1.40;;;;;;;10.16;68.97;97289.27;107746;1267;29204;-72
2022/06/03 01:11:53;;;;;;;2.70;1.60;;;;;;;10.03;68.61;97291.64;107636;1268;39156;-73
2022/06/03 01:14:37;;;;;;;3.70;1.60;;;;;;;9.98;68.93;97288.15;107753;1267;33726;-72
2022/06/03 01:17:23;;;;;;;2.90;1.70;;;;;;;9.99;69.21;97295.39;107753;1268;35016;-72
2022/06/03 01:20:12;;;;;;;2.20;1.90;;;;;;;9.96;69.38;97295.62;107631;1268;32368;-72
2022/06/03 01:23:13;;;;;;;1.70;1.60;;;;;;;9.83;69.54;97295.09;106365;1268;1743828;-71
2022/06/03 01:26:17;;;;;;;1.60;1.20;;;;;;;9.68;69.91;97296.73;107660;1268;28836;-72
2022/06/03 01:29:25;;;;;;;1.90;1.60;;;;;;;9.71;70.03;97295.16;107643;1268;36316;-72
2022/06/03 01:32:19;;;;;;;2.80;1.80;;;;;;;9.74;69.96;97295.19;107595;1267;40936;-71
2022/06/03 01:35:07;;;;;;;4.10;1.80;;;;;;;9.68;70.19;97295.24;107721;1267;40085;-71
2022/06/03 01:37:48;;;;;;;2.20;1.70;;;;;;;9.71;70.13;97295.00;107585;1268;37631;-72
2022/06/03 01:40:35;;;;;;;2.10;1.50;;;;;;;9.70;70.11;97295.65;107746;1267;29675;-71
2022/06/03 01:43:35;;;;;;;1.70;1.50;;;;;;;9.49;70.82;97305.19;107649;1268;44022;-72
2022/06/03 01:46:25;;;;;;;;;;;;;;;9.29;71.60;97306.45;107696;1265;41437;-72
2022/06/03 01:49:34;;;;;;;1.90;1.70;;;;;;;9.31;72.27;97302.35;107748;1267;33557;-72
2022/06/03 01:52:35;;;;;;;1.90;1.70;;;;;;;9.45;72.43;97306.58;107640;1267;45241;-73
2022/06/03 01:55:54;;;;;;;3.10;1.60;;;;;;;9.53;72.04;97297.59;107655;1268;33568;-73
2022/06/03 01:58:55;;;;;;;2.00;1.50;;;;;;;9.60;71.68;97300.82;107163;1273;47769;-72
2022/06/03 02:02:14;;;;;;;1.90;1.70;;;;;;;9.62;71.24;97297.34;107640;1267;37747;-73
2022/06/03 02:05:23;;;;;;;1.60;1.40;;;;;;;9.58;71.30;97302.55;107720;1268;33141;-73
2022/06/03 02:08:22;;;;;;;2.30;1.70;;;;;;;9.22;71.39;97308.83;107672;1268;42139;-72
2022/06/03 02:11:30;;;;;;;2.60;1.70;;;;;;;8.81;72.31;97309.61;107723;1267;46487;-72
2022/06/03 02:14:26;;;;;;;2.10;1.30;;;;;;;8.64;73.33;97313.94;107699;1268;32646;-72
2022/06/03 02:17:19;;;;;;;2.90;1.90;;;;;;;8.69;73.73;97315.93;107686;1268;35244;-72
2022/06/03 02:20:25;;;;;;;2.50;2.10;;;;;;;8.83;73.86;97317.19;107718;1268;30142;-72
2022/06/03 02:23:39;;;;;;;3.10;1.80;;;;;;;8.88;74.40;97318.58;107700;1268;39084;-72
2022/06/03 02:26:36;;;;;;;2.00;1.60;;;;;;;9.04;74.50;97320.21;107275;1273;34526;-73
2022/06/03 02:32:52;;;;;;;1.90;1.50;;;;;;;8.95;74.49;97325.77;107688;1267;46153;-73
2022/06/03 02:35:53;;;;;;;2.60;1.80;;;;;;;9.12;74.44;97327.46;107704;1267;41533;-72
2022/06/03 02:38:43;;;;;;;2.60;1.70;;;;;;;9.23;74.32;97333.76;107741;1267;33331;-72
2022/06/03 02:41:54;;;;;;;2.10;1.50;;;;;;;9.22;73.97;97332.06;107719;1267;34940;-72
2022/06/03 02:44:57;;;;;;;2.30;1.50;;;;;;;9.21;73.84;97334.27;107564;1268;32232;-72
2022/06/03 02:48:04;;;;;;;2.00;1.80;;;;;;;9.11;73.76;97336.36;107529;1268;42217;-72
2022/06/03 02:51:00;;;;;;;2.70;1.80;;;;;;;8.88;74.07;97338.19;107636;1268;32028;-73
2022/06/03 02:54:16;;;;;;;3.40;1.30;;;;;;;8.87;74.66;97338.02;107670;1268;31019;-72
2022/06/03 02:57:11;;;;;;;2.10;1.60;;;;;;;8.92;74.23;97340.03;107581;1267;35653;-72
2022/06/03 03:00:09;;;;;;;3.20;1.60;;;;;;;8.99;74.54;97340.04;107682;1268;37184;-72
2022/06/03 03:03:01;;;;;;;2.10;1.70;;;;;;;9.15;74.54;97336.55;107684;1267;36954;-72
2022/06/03 03:05:50;;;;;;;2.70;2.10;;;;;;;9.32;74.41;97336.80;107737;1268;30555;-72
2022/06/03 03:08:54;;;;;;;2.50;2.00;;;;;;;9.40;74.04;97342.05;107629;1268;37526;-72
2022/06/03 03:11:58;;;;;;;2.00;1.60;;;;;;;9.40;74.08;97342.89;107653;1268;32784;-72
2022/06/03 03:14:57;;;;;;;2.30;1.60;;;;;;;9.33;74.23;97342.48;107735;1268;39263;-72
2022/06/03 03:18:14;;;;;;;2.60;2.00;;;;;;;9.42;74.37;97341.08;107676;1268;30014;-72
2022/06/03 03:21:27;;;;;;;5.40;2.30;;;;;;;9.56;74.11;97338.05;107211;1276;29185;-72
2022/06/03 03:24:40;;;;;;;4.00;1.80;;;;;;;9.66;73.91;97337.48;107515;1268;37676;-72
2022/06/03 03:27:33;;;;;;;4.50;3.30;;;;;;;9.67;74.08;97338.30;107666;1267;30659;-72
2022/06/03 03:30:20;;;;;;;5.20;2.80;;;;;;;9.52;74.21;97337.70;107706;1268;36299;-73
2022/06/03 03:33:20;;;;;;;4.00;2.50;;;;;;;9.57;74.72;97338.74;107720;1268;37687;-71
2022/06/03 03:36:13;;;;;;;3.90;3.20;;;;;;;9.65;75.00;97333.83;107817;1268;36195;-72
2022/06/03 03:39:15;;;;;;;4.70;3.70;;;;;;;9.70;75.08;97339.16;107613;1268;42030;-72
2022/06/03 03:42:29;;;;;;;4.20;2.90;;;;;;;9.84;75.16;97336.23;107630;1268;33779;-72
2022/06/03 03:45:25;;;;;;;3.10;2.50;;;;;;;9.98;74.95;97338.66;107754;1268;33147;-71
2022/06/03 03:48:25;;;;;;;2.90;2.50;;;;;;;10.09;75.04;97337.49;107702;1267;40044;-71
2022/06/03 03:51:12;;;;;;;3.70;2.50;;;;;;;10.19;75.04;97342.44;107680;1268;34561;-71
2022/06/03 03:54:12;;;;;;;3.00;2.30;;;;;;;10.30;75.15;97341.94;107635;1268;41869;-71
2022/06/03 03:57:20;;;;;;;2.60;1.60;;;;;;;10.46;75.33;97343.06;107641;1268;35821;-71
2022/06/03 04:00:13;;;;;;;2.70;2.20;;;;;;;10.62;74.78;97339.36;107649;1268;39336;-71
2022/06/03 04:03:26;;;;;;;3.20;2.60;;;;;;;10.81;75.51;97339.77;107560;1269;37077;-72
2022/06/03 04:06:30;;;;;;;4.10;2.60;;;;;;;10.96;75.38;97343.70;107489;1268;40979;-71
2022/06/03 04:09:26;;;;;;;3.40;3.10;;;;;;;11.11;75.66;97342.34;107708;1268;43240;-71
2022/06/03 04:15:54;;;;;;;3.50;2.40;;;;;;;11.36;75.07;97340.35;103775;1313;567344;-72
2022/06/03 04:19:07;;;;;;;5.10;2.80;;;;;;;11.52;74.56;97345.83;105822;1290;39443;-72
2022/06/03 04:22:23;;;;;;;4.20;3.00;;;;;;;11.71;74.20;97350.12;106367;1284;36075;-72
2022/06/03 04:25:33;;;;;;;3.80;2.90;;;;;;;11.91;74.28;97355.34;106402;1286;40166;-71
2022/06/03 04:28:37;;;;;;;3.40;2.70;;;;;;;12.12;74.06;97351.32;106166;1283;212773;-73
2022/06/03 04:32:10;;;;;;;3.30;2.70;;;;;;;12.32;73.72;97358.70;106674;1283;36236;-71
2022/06/03 04:35:05;;;;;;;2.80;2.40;;;;;;;12.54;73.19;97357.62;106450;1282;41847;-72
2022/06/03 04:38:15;;;;;;;2.90;2.10;;;;;;;12.73;73.30;97358.55;106725;1282;37183;-72
2022/06/03 04:41:29;;;;;;;3.00;2.20;;;;;;;12.96;72.99;97359.08;106960;1279;45957;-71
2022/06/03 04:44:47;;;;;;;2.50;2.30;;;;;;;13.18;72.22;97353.05;106717;1281;33951;-72
2022/06/03 04:47:50;;;;;;;4.10;2.60;;;;;;;13.43;72.05;97353.70;106944;1278;34463;-72
2022/06/03 04:50:56;;;;;;;3.70;2.40;;;;;;;13.60;71.57;97352.60;106883;1279;36079;-71
2022/06/03 04:54:19;;;;;;;2.40;2.20;;;;;;;13.77;71.21;97355.97;107328;1273;43656;-72
2022/06/03 04:57:29;;;;;;;3.00;2.60;;;;;;;13.97;71.01;97360.54;107338;1273;44944;-72
2022/06/03 05:00:21;;;;;;;3.60;2.70;;;;;;;14.25;70.85;97365.27;107358;1274;34679;-72
2022/06/03 05:03:40;;;;;;;6.60;3.80;;;;;;;14.57;70.85;97366.33;107358;1271;36702;-72
2022/06/03 05:06:37;;;;;;;9.70;5.00;;;;;;;14.98;69.88;97368.48;107143;1277;41420;-72
2022/06/03 05:09:52;;;;;;;9.80;4.80;;;;;;;15.42;68.62;97372.14;107046;1277;44967;-72
2022/06/03 05:12:54;;;;;;;6.20;4.00;;;;;;;16.07;68.01;97373.89;107329;1271;38589;-72
2022/06/03 05:16:07;;;;;;;5.30;3.60;;;;;;;18.28;67.43;97369.90;107334;1273;36048;-72
2022/06/03 05:18:56;;;;;;;4.20;2.60;;;;;;;22.24;63.62;97368.73;107314;1273;51677;-72
2022/06/03 05:21:57;;;;;;;3.80;2.60;;;;;;;25.52;58.99;97369.88;107351;1273;42764;-72
2022/06/03 05:25:06;;;;;;;4.90;2.70;;;;;;;28.26;53.00;97365.64;107379;1271;39659;-72
2022/06/03 05:28:19;;;;;;;5.40;2.40;;;;;;;30.48;47.95;97366.33;107141;1278;32753;-73
2022/06/03 05:31:44;;;;;;;4.00;2.20;;;;;;;32.29;44.93;97370.05;107069;1276;39917;-72
2022/06/03 05:34:59;;;;;;;3.10;1.90;;;;;;;33.56;40.62;97372.92;107356;1273;39677;-72
2022/06/03 05:38:07;;;;;;;4.80;2.30;;;;;;;34.25;37.96;97373.45;107358;1273;33323;-73
2022/06/03 05:40:58;;;;;;;1.60;1.40;;;;;;;35.20;36.54;97371.58;107314;1273;45966;-73
2022/06/03 05:43:47;;;;;;;4.20;1.50;;;;;;;36.38;34.13;97372.07;107291;1274;36744;-73
2022/06/03 05:46:34;;;;;;;2.60;1.50;;;;;;;36.91;32.05;97368.36;107303;1273;34687;-73
2022/06/03 05:49:35;;;;;;;2.20;1.40;;;;;;;37.43;31.52;97371.95;107377;1273;36468;-74
2022/06/03 05:52:22;;;;;;;1.90;1.60;;;;;;;37.97;29.49;97369.39;107362;1271;39972;-74
2022/06/03 05:55:09;;;;;;;2.30;1.50;;;;;;;38.41;29.07;97368.80;107305;1271;42013;-73
2022/06/03 05:57:50;;;;;;;2.20;1.30;;;;;;;39.16;28.06;97370.07;107414;1271;43077;-74
2022/06/03 06:00:44;;;;;;;2.60;1.30;;;;;;;39.91;27.24;97371.00;107360;1271;34132;-74
2022/06/03 06:03:32;;;;;;;1.70;1.20;;;;;;;40.53;26.50;97366.52;107363;1271;57304;-74
2022/06/03 06:06:19;;;;;;;2.30;1.50;;;;;;;40.96;25.68;97361.02;107483;1271;29682;-74
2022/06/03 06:09:13;;;;;;;2.10;1.50;;;;;;;41.43;24.88;97359.80;107373;1271;35983;-73
2022/06/03 06:12:01;;;;;;;3.20;1.50;;;;;;;41.56;23.70;97353.70;107414;1271;30134;-74
2022/06/03 06:14:50;;;;;;;3.30;1.60;;;;;;;41.23;22.40;97354.31;107426;1271;37999;-73
2022/06/03 06:17:42;;;;;;;2.90;1.60;;;;;;;40.62;23.37;97354.31;107394;1271;40023;-74
2022/06/03 06:20:30;;;;;;;1.40;1.30;;;;;;;40.71;22.15;97352.54;107429;1271;32651;-74
2022/06/03 06:23:07;;;;;;;2.70;1.50;;;;;;;39.83;21.81;97354.01;107435;1271;36474;-74
2022/06/03 06:25:47;;;;;;;2.50;1.30;;;;;;;40.39;22.75;97355.66;107388;1271;40731;-74
2022/06/03 06:28:35;;;;;;;2.40;1.30;;;;;;;41.06;22.03;97357.35;107361;1270;43933;-74
2022/06/03 06:31:26;;;;;;;1.70;1.40;;;;;;;41.98;22.04;97356.89;107363;1271;30928;-74
2022/06/03 06:34:21;;;;;;;1.60;1.50;;;;;;;42.66;21.23;97358.33;107356;1271;43225;-72
2022/06/03 06:37:20;;;;;;;1.80;1.60;;;;;;;43.08;20.73;97362.27;107380;1271;32898;-72
2022/06/03 06:40:17;;;;;;;2.40;1.60;;;;;;;43.61;20.41;97363.42;107393;1271;30836;-72
2022/06/03 06:43:07;;;;;;;2.40;1.80;;;;;;;43.99;19.74;97357.72;107289;1273;41901;-73
2022/06/03 06:45:52;;;;;;;3.00;1.70;;;;;;;44.22;19.02;97355.31;107397;1271;31015;-73
2022/06/03 06:48:38;;;;;;;1.80;1.60;;;;;;;44.38;18.98;97351.98;107365;1271;41368;-73
2022/06/03 06:51:36;;;;;;;1.60;1.30;;;;;;;44.23;17.38;97350.07;107365;1271;39613;-73
2022/06/03 06:54:13;;;;;;;1.50;1.00;;;;;;;43.17;16.97;97348.63;107404;1271;34806;-73
2022/06/03 06:56:50;;;;;;;1.80;1.00;;;;;;;41.91;16.31;97347.16;107376;1271;37612;-73
2022/06/03 06:59:28;;;;;;;3.70;1.20;;;;;;;39.06;15.08;97346.40;107391;1271;36840;-72
2022/06/03 07:02:05;;;;;;;1.20;1.10;;;;;;;36.94;17.28;97339.92;107411;1272;44218;-73
2022/06/03 07:04:41;;;;;;;3.70;1.50;;;;;;;36.05;17.61;97337.78;107384;1271;34769;-73
2022/06/03 07:07:21;;;;;;;2.30;1.40;;;;;;;35.01;18.89;97339.44;107365;1271;50372;-72
2022/06/03 07:09:59;;;;;;;1.90;1.00;;;;;;;35.08;18.35;97342.60;107347;1272;50042;-73
2022/06/03 07:12:36;;;;;;;1.80;1.20;;;;;;;33.81;19.30;97341.27;107424;1271;32990;-73
2022/06/03 07:15:11;;;;;;;3.90;2.20;;;;;;;33.66;20.13;97336.60;107349;1271;40870;-72
2022/06/03 07:21:05;;;;;;;10.70;1.90;;;;;;;33.43;20.29;97330.50;107352;1271;40755;-73
2022/06/03 07:23:45;;;;;;;3.80;1.20;;;;;;;32.87;20.66;97327.58;107350;1271;35611;-75
2022/06/03 07:26:31;;;;;;;1.20;1.00;;;;;;;33.76;20.12;97333.79;107311;1272;41312;-75
2022/06/03 07:29:12;;;;;;;1.00;0.90;;;;;;;33.33;20.09;97328.10;107374;1273;50902;-74
2022/06/03 07:31:48;;;;;;;1.20;0.90;;;;;;;34.41;20.36;97331.90;107317;1273;41700;-75
2022/06/03 07:34:26;;;;;;;2.00;1.10;;;;;;;34.59;19.34;97334.61;107361;1271;45167;-74
2022/06/03 07:37:02;;;;;;;2.50;1.20;;;;;;;33.60;19.44;97338.06;107337;1271;36767;-75
2022/06/03 07:39:42;;;;;;;1.40;1.10;;;;;;;32.86;20.92;97336.27;107434;1273;40576;-75
2022/06/03 07:42:22;;;;;;;2.30;1.30;;;;;;;33.93;19.62;97342.54;107346;1271;33217;-75
2022/06/03 07:45:12;;;;;;;3.00;0.90;;;;;;;32.85;20.13;97335.11;107337;1273;37535;-75
2022/06/03 07:47:44;;;;;;;1.50;1.10;;;;;;;32.39;20.57;97334.33;107402;1271;39177;-75
2022/06/03 07:50:21;;;;;;;1.70;1.30;;;;;;;32.59;21.09;97325.84;107375;1273;33205;-75
2022/06/03 07:52:59;;;;;;;2.40;1.00;;;;;;;33.59;21.22;97324.08;107341;1273;37047;-75
2022/06/03 07:55:35;;;;;;;4.30;1.30;;;;;;;34.81;20.01;97326.78;107398;1273;38431;-75
2022/06/03 07:58:15;;;;;;;1.80;1.30;;;;;;;35.37;20.34;97320.45;107371;1273;40248;-75
2022/06/03 08:00:46;;;;;;;1.90;1.30;;;;;;;35.32;19.00;97321.58;107341;1273;37867;-75
2022/06/03 08:03:24;;;;;;;1.90;1.20;;;;;;;34.72;19.52;97319.78;107291;1273;43723;-75
2022/06/03 08:06:02;;;;;;;1.70;1.20;;;;;;;35.71;20.42;97314.38;107384;1273;29786;-75
2022/06/03 08:11:32;;;;;;;1.70;1.60;;;;;;;35.26;19.41;97314.14;107311;1273;69013;-74
2022/06/03 08:14:04;;;;;;;1.70;1.50;;;;;;;35.03;20.27;97313.39;107426;1272;33839;-74
2022/06/03 08:16:39;;;;;;;2.10;1.60;;;;;;;36.85;20.39;97310.16;107335;1273;42363;-75
2022/06/03 08:19:15;;;;;;;3.20;1.20;;;;;;;38.90;19.27;97313.52;107350;1271;37334;-75
2022/06/03 08:21:52;;;;;;;1.50;1.30;;;;;;;39.34;16.30;97314.91;107324;1273;38882;-75
2022/06/03 08:24:30;;;;;;;1.50;1.40;;;;;;;36.13;17.66;97306.84;107383;1273;29604;-75
2022/06/03 08:27:06;;;;;;;1.50;1.30;;;;;;;34.66;19.48;97309.48;107456;1273;48369;-74
2022/06/03 08:29:42;;;;;;;2.50;1.50;;;;;;;33.71;20.11;97304.94;107393;1271;33669;-75
2022/06/03 08:32:18;;;;;;;1.60;1.20;;;;;;;34.85;20.61;97296.67;107293;1273;48609;-75
2022/06/03 08:34:52;;;;;;;1.70;1.50;;;;;;;35.65;18.89;97295.63;107296;1271;43669;-75
2022/06/03 08:37:26;;;;;;;1.60;1.40;;;;;;;36.66;20.01;97297.23;107321;1273;44459;-75
2022/06/03 08:40:02;;;;;;;2.00;1.70;;;;;;;37.43;17.44;97301.75;107336;1273;33774;-75
2022/06/03 08:42:45;;;;;;;3.00;1.50;;;;;;;34.93;18.59;97301.94;107379;1273;47322;-74
2022/06/03 08:45:29;;;;;;;2.10;1.40;;;;;;;33.33;20.37;97300.38;107270;1273;41071;-74
2022/06/03 08:48:05;;;;;;;1.50;1.30;;;;;;;33.87;21.67;97297.33;107408;1273;34339;-74
2022/06/03 08:50:43;;;;;;;1.30;0.80;;;;;;;35.39;21.49;97301.41;107347;1272;36454;-75
2022/06/03 08:53:24;;;;;;;1.90;1.50;;;;;;;35.28;19.13;97300.61;107388;1273;33777;-75
2022/06/03 08:56:09;;;;;;;1.50;1.40;;;;;;;31.62;22.00;97298.40;107348;1273;37560;-74
2022/06/03 08:58:46;;;;;;;2.20;1.50;;;;;;;29.64;23.88;97301.81;107386;1273;36213;-74
2022/06/03 09:01:29;;;;;;;3.20;1.50;;;;;;;27.90;26.08;97300.52;107283;1273;46721;-74
2022/06/03 09:04:12;;;;;;;1.90;1.80;;;;;;;27.03;27.91;97295.85;107390;1273;32024;-73
2022/06/03 09:06:49;;;;;;;1.90;1.70;;;;;;;26.58;28.29;97293.56;107317;1273;43401;-73
2022/06/03 09:09:30;;;;;;;1.90;1.80;;;;;;;26.06;29.29;97292.80;107365;1273;36594;-73
2022/06/03 09:12:14;;;;;;;3.20;1.70;;;;;;;25.30;30.22;97289.69;107399;1273;34853;-74
2022/06/03 09:14:49;;;;;;;2.30;2.10;;;;;;;24.48;31.25;97289.70;107351;1273;42783;-73
2022/06/03 09:17:41;;;;;;;4.60;1.60;;;;;;;24.34;32.18;97285.89;107373;1271;43106;-73
2022/06/03 09:20:17;;;;;;;3.40;1.70;;;;;;;24.37;31.76;97292.77;107324;1272;40038;-73
2022/06/03 09:22:51;;;;;;;2.00;1.60;;;;;;;23.81;32.42;97290.73;107388;1272;33989;-73
2022/06/03 09:25:23;;;;;;;2.20;1.30;;;;;;;23.44;32.91;97286.85;107363;1273;35312;-73
2022/06/03 09:27:55;;;;;;;2.20;1.80;;;;;;;23.57;32.75;97286.29;107367;1272;36201;-73
2022/06/03 09:30:34;;;;;;;4.60;1.90;;;;;;;23.42;33.31;97282.48;107314;1271;30837;-73
2022/06/03 09:33:12;;;;;;;4.10;1.90;;;;;;;23.50;33.68;97283.08;107317;1272;47541;-73
2022/06/03 09:35:46;;;;;;;3.50;2.00;;;;;;;23.41;34.13;97281.29;107354;1271;44847;-73
2022/06/03 09:38:20;;;;;;;2.40;1.80;;;;;;;23.21;34.32;97287.05;107303;1273;41992;-73
2022/06/03 09:40:57;;;;;;;3.40;1.60;;;;;;;22.91;34.89;97285.89;107335;1273;69918;-73
2022/06/03 09:43:31;;;;;;;2.60;2.00;;;;;;;22.94;35.00;97284.98;107347;1272;37787;-73
2022/06/03 09:46:05;;;;;;;3.00;1.70;;;;;;;23.32;34.32;97285.36;107394;1273;45057;-73
2022/06/03 09:48:39;;;;;;;2.50;1.80;;;;;;;23.16;34.01;97281.67;107275;1273;49362;-73
2022/06/03 09:51:19;;;;;;;2.20;1.90;;;;;;;23.11;35.02;97276.89;107397;1272;29944;-73
2022/06/03 09:53:50;;;;;;;2.10;1.50;;;;;;;23.36;35.36;97277.20;107371;1273;38004;-73
2022/06/03 09:56:30;;;;;;;2.90;1.80;;;;;;;23.54;34.28;97283.13;107327;1273;31213;-73
2022/06/03 09:59:03;;;;;;;3.20;1.80;;;;;;;23.10;34.43;97282.60;107409;1272;34663;-72
2022/06/03 10:01:35;;;;;;;2.30;1.80;;;;;;;22.98;35.48;97280.40;107460;1272;44250;-73
2022/06/03 10:04:08;;;;;;;1.70;1.60;;;;;;;23.51;36.02;97280.96;107310;1272;39502;-73
2022/06/03 10:06:47;;;;;;;3.70;2.00;;;;;;;23.77;34.89;97279.64;107281;1273;50290;-73
2022/06/03 10:18:03;;;;;;;3.60;2.10;;;;;;;23.07;35.94;97270.27;107254;1273;46132;-73
2022/06/03 10:20:36;;;;;;;3.70;1.80;;;;;;;23.22;35.82;97263.67;107355;1273;78362;-73
2022/06/03 10:23:09;;;;;;;3.30;2.20;;;;;;;23.53;36.19;97258.98;107338;1273;43503;-74
2022/06/03 10:25:42;;;;;;;2.00;1.70;;;;;;;24.01;36.39;97257.64;107308;1273;49792;-73
2022/06/03 10:28:15;;;;;;;1.70;1.50;;;;;;;24.40;35.27;97261.48;107347;1273;37886;-73
2022/06/03 10:30:59;;;;;;;4.40;2.00;;;;;;;24.05;33.80;97259.05;107291;1272;45773;-73
2022/06/03 10:33:31;;;;;;;3.10;1.80;;;;;;;23.63;34.63;97258.01;107348;1273;42940;-73
2022/06/03 10:36:04;;;;;;;2.50;1.90;;;;;;;23.31;34.97;97252.88;107369;1272;43505;-73
2022/06/03 10:38:37;;;;;;;2.40;1.90;;;;;;;23.28;35.02;97253.09;107311;1273;34252;-73
2022/06/03 10:41:10;;;;;;;2.90;2.10;;;;;;;23.06;35.50;97248.86;107292;1272;46756;-73
2022/06/03 10:43:45;;;;;;;2.10;1.70;;;;;;;23.10;36.14;97241.48;107361;1272;42048;-73
2022/06/03 10:46:20;;;;;;;3.90;2.00;;;;;;;23.29;35.82;97246.02;107307;1273;39809;-73
2022/06/03 10:48:52;;;;;;;2.10;1.80;;;;;;;23.43;36.27;97243.36;107371;1273;39594;-73
2022/06/03 11:02:40;;;;;;;;;;;;;;;23.64;35.73;97234.83;107341;1273;46571;-73
2022/06/03 11:05:16;;;;;;;3.20;2.00;;;;;;;23.94;35.92;97230.64;107365;1273;47189;-73
2022/06/03 11:08:01;;;;;;;3.20;2.30;;;;;;;24.30;35.99;97233.98;107376;1273;44943;-73
2022/06/03 11:10:37;;;;;;;2.70;2.10;;;;;;;24.54;35.51;97233.90;107407;1273;44527;-73
2022/06/03 11:13:11;;;;;;;4.80;2.20;;;;;;;24.74;35.66;97233.97;107372;1273;39189;-73
2022/06/03 11:15:46;;;;;;;2.00;1.80;;;;;;;24.76;34.76;97233.54;107305;1273;45748;-73
2022/06/03 11:18:20;;;;;;;3.00;2.20;;;;;;;24.25;34.34;97235.39;107344;1273;29211;-72
2022/06/03 11:20:54;;;;;;;3.00;2.00;;;;;;;24.02;34.67;97236.31;107214;1274;48128;-73
2022/06/03 11:23:26;;;;;;;2.60;1.80;;;;;;;23.85;34.56;97230.73;107333;1273;27845;-73
2022/06/03 11:26:01;;;;;;;3.10;2.00;;;;;;;23.91;35.51;97227.41;107298;1273;46233;-73
2022/06/03 11:28:38;;;;;;;3.50;2.10;;;;;;;23.85;34.68;97222.51;107406;1273;38545;-72
2022/06/03 11:31:15;;;;;;;2.60;2.10;;;;;;;23.80;35.97;97216.73;107319;1273;41389;-73
2022/06/03 11:33:55;;;;;;;2.20;2.00;;;;;;;24.19;36.44;97218.30;107313;1273;35076;-73
2022/06/03 11:36:33;;;;;;;2.40;1.90;;;;;;;24.49;36.17;97210.64;107328;1273;45860;-73
2022/06/03 11:39:15;;;;;;;3.20;2.00;;;;;;;24.75;36.38;97206.88;107460;1273;37309;-73
2022/06/03 11:41:50;;;;;;;2.40;2.00;;;;;;;24.84;35.31;97204.80;107307;1273;42823;-73
2022/06/03 11:44:27;;;;;;;4.50;2.10;;;;;;;24.60;35.53;97208.56;107383;1273;35507;-73
2022/06/03 11:47:04;;;;;;;2.90;2.10;;;;;;;24.61;36.53;97201.15;107244;1273;42224;-73
2022/06/03 11:49:36;;;;;;;4.90;2.40;;;;;;;24.84;36.28;97198.06;107340;1273;36546;-73
2022/06/03 11:52:07;;;;;;;2.60;2.00;;;;;;;25.08;36.88;97194.84;107282;1273;46655;-73
2022/06/03 11:54:40;;;;;;;3.40;2.40;;;;;;;25.20;35.75;97196.55;107358;1273;31888;-73
2022/06/03 11:57:15;;;;;;;2.20;1.80;;;;;;;24.93;34.82;97193.15;107371;1273;38119;-73
2022/06/03 11:59:56;;;;;;;2.10;1.90;;;;;;;24.40;34.85;97192.85;107300;1273;48928;-73
2022/06/03 12:02:34;;;;;;;3.60;2.00;;;;;;;24.36;35.92;97189.45;107285;1273;40867;-72
2022/06/03 12:05:09;;;;;;;2.00;1.50;;;;;;;24.28;35.97;97185.00;107385;1273;46644;-72
2022/06/03 12:14:41;;;;;;;2.50;1.90;;;;;;;24.54;35.10;97167.46;106933;1279;31428;-73
2022/06/03 12:17:30;;;;;;;3.20;1.70;;;;;;;24.15;35.28;97167.20;107096;1278;40312;-73
2022/06/03 12:20:33;;;;;;;2.30;2.10;;;;;;;24.06;36.50;97167.23;107063;1278;43492;-72
2022/06/03 12:23:49;;;;;;;2.70;2.00;;;;;;;24.16;36.32;97164.45;107161;1276;42060;-72
2022/06/03 12:26:36;;;;;;;2.30;2.10;;;;;;;24.15;35.18;97160.46;107074;1277;51673;-73
2022/06/03 12:29:18;;;;;;;2.40;2.00;;;;;;;24.15;36.00;97156.44;107088;1277;40575;-73
2022/06/03 12:31:49;;;;;;;2.60;1.90;;;;;;;24.41;36.88;97147.52;107027;1277;46531;-73
2022/06/03 12:34:28;;;;;;;2.70;1.90;;;;;;;24.72;37.53;97148.39;107093;1278;33902;-72
2022/06/03 12:37:22;;;;;;;3.40;2.10;;;;;;;25.02;37.49;97136.66;107091;1278;45529;-72
2022/06/03 12:40:05;;;;;;;4.20;2.10;;;;;;;25.29;36.93;97130.64;107064;1278;36103;-72
2022/06/03 12:42:41;;;;;;;4.40;2.30;;;;;;;25.32;35.77;97127.29;107004;1278;46273;-73
2022/06/03 12:45:29;;;;;;;4.80;2.10;;;;;;;24.98;35.32;97119.55;107151;1278;37327;-73
2022/06/03 12:48:01;;;;;;;3.20;2.00;;;;;;;24.75;35.58;97122.27;107183;1277;27976;-73
2022/06/03 12:51:06;;;;;;;3.00;1.90;;;;;;;24.49;35.84;97119.96;107306;1271;50012;-73
2022/06/03 12:53:41;;;;;;;3.60;2.20;;;;;;;24.40;35.64;97113.96;107364;1273;39284;-74
2022/06/03 12:56:23;;;;;;;2.40;2.10;;;;;;;24.44;35.88;97109.56;107373;1273;35814;-73
2022/06/03 12:59:04;;;;;;;2.10;1.90;;;;;;;24.40;36.25;97104.76;107348;1273;48328;-73
2022/06/03 13:01:47;;;;;;;3.30;1.80;;;;;;;24.57;36.48;97099.52;107412;1273;33973;-73
2022/06/03 13:04:58;;;;;;;3.40;1.80;;;;;;;24.57;35.66;97096.50;107412;1273;31562;-73
2022/06/03 13:07:39;;;;;;;2.70;2.00;;;;;;;24.34;35.34;97095.65;107343;1273;33757;-72
2022/06/03 13:10:45;;;;;;;2.20;2.00;;;;;;;24.07;35.42;97091.25;107338;1273;49790;-73
2022/06/03 13:13:41;;;;;;;2.40;2.10;;;;;;;24.05;36.52;97090.19;107339;1273;39329;-73
2022/06/03 13:16:37;;;;;;;3.20;2.20;;;;;;;24.11;35.68;97087.23;107315;1273;48896;-72
2022/06/03 13:19:35;;;;;;;2.60;1.90;;;;;;;23.96;35.73;97089.07;107324;1273;42388;-73
2022/06/03 13:22:09;;;;;;;6.40;2.20;;;;;;;24.11;35.83;97087.77;107297;1273;35157;-73
2022/06/03 13:24:42;;;;;;;3.30;1.90;;;;;;;24.17;36.32;97087.05;107322;1273;40701;-73
2022/06/03 13:27:31;;;;;;;3.00;1.80;;;;;;;24.30;36.21;97078.05;107345;1273;35406;-72
2022/06/03 13:30:13;;;;;;;4.50;2.10;;;;;;;24.36;35.38;97071.28;107416;1273;31725;-72
2022/06/03 13:33:14;;;;;;;2.90;1.90;;;;;;;24.19;35.59;97076.41;107416;1272;39821;-72
2022/06/03 13:36:03;;;;;;;3.00;2.10;;;;;;;24.18;36.30;97070.75;107379;1273;43189;-72
2022/06/03 13:38:46;;;;;;;3.20;2.20;;;;;;;24.38;36.16;97073.82;107492;1273;33336;-72
2022/06/03 13:44:20;;;;;;;2.80;1.80;;;;;;;24.87;36.54;97062.30;107345;1273;42065;-73
2022/06/03 13:46:56;;;;;;;2.60;2.20;;;;;;;25.06;36.65;97060.70;107317;1273;42085;-73
2022/06/03 13:49:29;;;;;;;3.40;1.90;;;;;;;25.24;36.85;97056.75;107340;1272;43594;-73